sensor_id;sensor_type;location;lat;lon;timestamp;pressure;altitude;pressure_sealevel;temperature;humidity
68193;BME280;55012;47.562;18.414;2022-09-09T00:02:21;67907.72;;;-144.28;100.00
68193;BME280;55012;47.562;18.414;2022-09-09T00:05:32;67907.72;;;-144.28;100.00
68193;BME280;55012;47.562;18.414;2022-09-09T00:07:48;67907.72;;;-144.28;100.00
68193;BME280;55012;47.562;18.414;2022-09-09T00:15:20;67907.72;;;-144.28;100.00
68193;BME280;55012;47.562;18.414;2022-09-09T00:17:59;67907.72;;;-144.28;100.00
68193;BME280;55012;47.562;18.414;2022-09-09T00:23:12;67907.72;;;-144.28;100.00
68193;BME280;55012;47.562;18.414;2022-09-09T00:25:48;67907.72;;;-144.28;100.00
68193;BME280;55012;47.562;18.414;2022-09-09T00:28:19;67907.72;;;-144.28;100.00
68193;BME280;55012;47.562;18.414;2022-09-09T00:30:45;67907.72;;;-144.28;100.00
68193;BME280;55012;47.562;18.414;2022-09-09T00:33:13;67907.72;;;-144.28;100.00
68193;BME280;55012;47.562;18.414;2022-09-09T00:35:58;67907.72;;;-144.28;100.00
68193;BME280;55012;47.562;18.414;2022-09-09T00:43:32;67907.72;;;-144.28;100.00
68193;BME280;55012;47.562;18.414;2022-09-09T00:46:07;67907.72;;;-144.28;100.00
68193;BME280;55012;47.562;18.414;2022-09-09T00:48:42;67907.72;;;-144.28;100.00
68193;BME280;55012;47.562;18.414;2022-09-09T00:51:13;67907.72;;;-144.28;100.00
68193;BME280;55012;47.562;18.414;2022-09-09T00:56:28;67907.72;;;-144.28;100.00
68193;BME280;55012;47.562;18.414;2022-09-09T01:01:39;67907.72;;;-144.28;100.00
68193;BME280;55012;47.562;18.414;2022-09-09T01:04:07;67907.72;;;-144.28;100.00
68193;BME280;55012;47.562;18.414;2022-09-09T01:06:36;67907.72;;;-144.28;100.00
68193;BME280;55012;47.562;18.414;2022-09-09T01:17:01;67907.72;;;-144.28;100.00
68193;BME280;55012;47.562;18.414;2022-09-09T01:20:13;67907.72;;;-144.28;100.00
68193;BME280;55012;47.562;18.414;2022-09-09T01:24:50;67907.72;;;-144.28;100.00
68193;BME280;55012;47.562;18.414;2022-09-09T01:27:19;67907.72;;;-144.28;100.00
68193;BME280;55012;47.562;18.414;2022-09-09T01:29:45;67907.72;;;-144.28;100.00
68193;BME280;55012;47.562;18.414;2022-09-09T01:34:55;67907.72;;;-144.28;100.00
68193;BME280;55012;47.562;18.414;2022-09-09T01:37:21;67907.72;;;-144.28;100.00
68193;BME280;55012;47.562;18.414;2022-09-09T01:39:46;67907.72;;;-144.28;100.00
68193;BME280;55012;47.562;18.414;2022-09-09T01:42:12;67907.72;;;-144.28;100.00
68193;BME280;55012;47.562;18.414;2022-09-09T01:44:39;67907.72;;;-144.28;100.00
68193;BME280;55012;47.562;18.414;2022-09-09T01:47:04;67907.72;;;-144.28;100.00
68193;BME280;55012;47.562;18.414;2022-09-09T01:49:30;67907.72;;;-144.28;100.00
68193;BME280;55012;47.562;18.414;2022-09-09T01:51:57;67907.72;;;-144.28;100.00
68193;BME280;55012;47.562;18.414;2022-09-09T01:54:24;67907.72;;;-144.28;100.00
68193;BME280;55012;47.562;18.414;2022-09-09T01:56:58;67907.72;;;-144.28;100.00
68193;BME280;55012;47.562;18.414;2022-09-09T02:05:01;67907.72;;;-144.28;100.00
68193;BME280;55012;47.562;18.414;2022-09-09T02:07:42;67907.72;;;-144.28;100.00
68193;BME280;55012;47.562;18.414;2022-09-09T02:10:09;67907.72;;;-144.28;100.00
68193;BME280;55012;47.562;18.414;2022-09-09T02:12:37;67907.72;;;-144.28;100.00
68193;BME280;55012;47.562;18.414;2022-09-09T02:15:07;67907.72;;;-144.28;100.00
68193;BME280;55012;47.562;18.414;2022-09-09T02:17:36;67907.72;;;-144.28;100.00
68193;BME280;55012;47.562;18.414;2022-09-09T02:20:07;67907.72;;;-144.28;100.00
68193;BME280;55012;47.562;18.414;2022-09-09T02:22:33;67907.72;;;-144.28;100.00
68193;BME280;55012;47.562;18.414;2022-09-09T02:25:01;67907.72;;;-144.28;100.00
68193;BME280;55012;47.562;18.414;2022-09-09T02:27:27;67907.72;;;-144.28;100.00
68193;BME280;55012;47.562;18.414;2022-09-09T02:29:53;67907.72;;;-144.28;100.00
68193;BME280;55012;47.562;18.414;2022-09-09T02:32:21;67907.72;;;-144.28;100.00
68193;BME280;55012;47.562;18.414;2022-09-09T02:34:48;67907.72;;;-144.28;100.00
68193;BME280;55012;47.562;18.414;2022-09-09T02:37:15;67907.72;;;-144.28;100.00
68193;BME280;55012;47.562;18.414;2022-09-09T02:39:42;67907.72;;;-144.28;100.00
68193;BME280;55012;47.562;18.414;2022-09-09T02:42:07;67907.72;;;-144.28;100.00
68193;BME280;55012;47.562;18.414;2022-09-09T02:44:33;67907.72;;;-144.28;100.00
68193;BME280;55012;47.562;18.414;2022-09-09T02:52:14;67907.72;;;-144.28;100.00
68193;BME280;55012;47.562;18.414;2022-09-09T02:54:41;67907.72;;;-144.28;100.00
68193;BME280;55012;47.562;18.414;2022-09-09T02:57:16;67907.72;;;-144.28;100.00
68193;BME280;55012;47.562;18.414;2022-09-09T02:59:42;67907.72;;;-144.28;100.00
68193;BME280;55012;47.562;18.414;2022-09-09T03:02:08;67907.72;;;-144.28;100.00
68193;BME280;55012;47.562;18.414;2022-09-09T03:04:35;67907.72;;;-144.28;100.00
68193;BME280;55012;47.562;18.414;2022-09-09T03:07:00;67907.72;;;-144.28;100.00
68193;BME280;55012;47.562;18.414;2022-09-09T03:09:25;67907.72;;;-144.28;100.00
68193;BME280;55012;47.562;18.414;2022-09-09T03:11:51;67907.72;;;-144.28;100.00
68193;BME280;55012;47.562;18.414;2022-09-09T03:14:16;67907.72;;;-144.28;100.00
68193;BME280;55012;47.562;18.414;2022-09-09T03:16:46;67907.72;;;-144.28;100.00
68193;BME280;55012;47.562;18.414;2022-09-09T03:19:11;67907.72;;;-144.28;100.00
68193;BME280;55012;47.562;18.414;2022-09-09T03:21:36;67907.72;;;-144.28;100.00
68193;BME280;55012;47.562;18.414;2022-09-09T03:24:02;67907.72;;;-144.28;100.00
68193;BME280;55012;47.562;18.414;2022-09-09T03:26:28;67907.72;;;-144.28;100.00
68193;BME280;55012;47.562;18.414;2022-09-09T03:28:54;67907.72;;;-144.28;100.00
68193;BME280;55012;47.562;18.414;2022-09-09T03:31:19;67907.72;;;-144.28;100.00
68193;BME280;55012;47.562;18.414;2022-09-09T03:33:44;67907.72;;;-144.28;100.00
68193;BME280;55012;47.562;18.414;2022-09-09T03:36:10;67907.72;;;-144.28;100.00
68193;BME280;55012;47.562;18.414;2022-09-09T03:38:35;67907.72;;;-144.28;100.00
68193;BME280;55012;47.562;18.414;2022-09-09T03:41:01;67907.72;;;-144.28;100.00
68193;BME280;55012;47.562;18.414;2022-09-09T03:43:27;67907.72;;;-144.28;100.00
68193;BME280;55012;47.562;18.414;2022-09-09T03:45:53;67907.72;;;-144.28;100.00
68193;BME280;55012;47.562;18.414;2022-09-09T03:48:22;67907.72;;;-144.28;100.00
68193;BME280;55012;47.562;18.414;2022-09-09T03:50:51;67907.72;;;-144.28;100.00
68193;BME280;55012;47.562;18.414;2022-09-09T03:53:18;67907.72;;;-144.28;100.00
68193;BME280;55012;47.562;18.414;2022-09-09T03:55:48;67907.72;;;-144.28;100.00
68193;BME280;55012;47.562;18.414;2022-09-09T03:58:14;67907.72;;;-144.28;100.00
68193;BME280;55012;47.562;18.414;2022-09-09T04:00:40;67907.72;;;-144.28;100.00
68193;BME280;55012;47.562;18.414;2022-09-09T04:03:11;67907.72;;;-144.28;100.00
68193;BME280;55012;47.562;18.414;2022-09-09T04:05:36;67907.72;;;-144.28;100.00
68193;BME280;55012;47.562;18.414;2022-09-09T04:08:05;67907.72;;;-144.28;100.00
68193;BME280;55012;47.562;18.414;2022-09-09T04:10:31;67907.72;;;-144.28;100.00
68193;BME280;55012;47.562;18.414;2022-09-09T04:12:56;67907.72;;;-144.28;100.00
68193;BME280;55012;47.562;18.414;2022-09-09T04:15:21;67907.72;;;-144.28;100.00
68193;BME280;55012;47.562;18.414;2022-09-09T04:17:47;67907.72;;;-144.28;100.00
68193;BME280;55012;47.562;18.414;2022-09-09T04:20:12;67907.72;;;-144.28;100.00
68193;BME280;55012;47.562;18.414;2022-09-09T04:22:37;67907.72;;;-144.28;100.00
68193;BME280;55012;47.562;18.414;2022-09-09T04:25:04;67907.72;;;-144.28;100.00
68193;BME280;55012;47.562;18.414;2022-09-09T04:27:30;67907.72;;;-144.28;100.00
68193;BME280;55012;47.562;18.414;2022-09-09T04:29:55;67907.72;;;-144.28;100.00
68193;BME280;55012;47.562;18.414;2022-09-09T04:32:22;67907.72;;;-144.28;100.00
68193;BME280;55012;47.562;18.414;2022-09-09T04:34:48;67907.72;;;-144.28;100.00
68193;BME280;55012;47.562;18.414;2022-09-09T04:37:13;67907.72;;;-144.28;100.00
68193;BME280;55012;47.562;18.414;2022-09-09T04:39:39;67907.72;;;-144.28;100.00
68193;BME280;55012;47.562;18.414;2022-09-09T04:42:04;67907.72;;;-144.28;100.00
68193;BME280;55012;47.562;18.414;2022-09-09T04:44:29;67907.72;;;-144.28;100.00
68193;BME280;55012;47.562;18.414;2022-09-09T04:46:55;67907.72;;;-144.28;100.00
68193;BME280;55012;47.562;18.414;2022-09-09T04:49:21;67907.72;;;-144.28;100.00
68193;BME280;55012;47.562;18.414;2022-09-09T04:51:48;67907.72;;;-144.28;100.00
68193;BME280;55012;47.562;18.414;2022-09-09T04:54:14;67907.72;;;-144.28;100.00
68193;BME280;55012;47.562;18.414;2022-09-09T04:56:39;67907.72;;;-144.28;100.00
68193;BME280;55012;47.562;18.414;2022-09-09T04:59:06;67907.72;;;-144.28;100.00
68193;BME280;55012;47.562;18.414;2022-09-09T05:01:32;67907.72;;;-144.28;100.00
68193;BME280;55012;47.562;18.414;2022-09-09T05:03:57;67907.72;;;-144.28;100.00
68193;BME280;55012;47.562;18.414;2022-09-09T05:06:22;67907.72;;;-144.28;100.00
68193;BME280;55012;47.562;18.414;2022-09-09T05:08:48;67907.72;;;-144.28;100.00
68193;BME280;55012;47.562;18.414;2022-09-09T05:11:18;67907.72;;;-144.28;100.00
68193;BME280;55012;47.562;18.414;2022-09-09T05:13:44;67907.72;;;-144.28;100.00
68193;BME280;55012;47.562;18.414;2022-09-09T05:16:10;67907.72;;;-144.28;100.00
68193;BME280;55012;47.562;18.414;2022-09-09T05:18:39;67907.72;;;-144.28;100.00
68193;BME280;55012;47.562;18.414;2022-09-09T05:21:04;67907.72;;;-144.28;100.00
68193;BME280;55012;47.562;18.414;2022-09-09T05:23:30;67907.72;;;-144.28;100.00
68193;BME280;55012;47.562;18.414;2022-09-09T05:25:56;67907.72;;;-144.28;100.00
68193;BME280;55012;47.562;18.414;2022-09-09T05:28:22;67907.72;;;-144.28;100.00
68193;BME280;55012;47.562;18.414;2022-09-09T05:30:58;67907.72;;;-144.28;100.00
68193;BME280;55012;47.562;18.414;2022-09-09T05:33:24;67907.72;;;-144.28;100.00
68193;BME280;55012;47.562;18.414;2022-09-09T05:36:01;67907.72;;;-144.28;100.00
68193;BME280;55012;47.562;18.414;2022-09-09T05:38:27;67907.72;;;-144.28;100.00
68193;BME280;55012;47.562;18.414;2022-09-09T05:40:53;67907.72;;;-144.28;100.00
68193;BME280;55012;47.562;18.414;2022-09-09T05:43:19;67907.72;;;-144.28;100.00
68193;BME280;55012;47.562;18.414;2022-09-09T05:45:48;67907.72;;;-144.28;100.00
68193;BME280;55012;47.562;18.414;2022-09-09T05:48:14;67907.72;;;-144.28;100.00
68193;BME280;55012;47.562;18.414;2022-09-09T05:50:43;67907.72;;;-144.28;100.00
68193;BME280;55012;47.562;18.414;2022-09-09T05:53:09;67907.72;;;-144.28;100.00
68193;BME280;55012;47.562;18.414;2022-09-09T05:55:35;67907.72;;;-144.28;100.00
68193;BME280;55012;47.562;18.414;2022-09-09T05:58:00;67907.72;;;-144.28;100.00
68193;BME280;55012;47.562;18.414;2022-09-09T06:00:26;67907.72;;;-144.28;100.00
68193;BME280;55012;47.562;18.414;2022-09-09T06:02:52;67907.72;;;-144.28;100.00
68193;BME280;55012;47.562;18.414;2022-09-09T06:05:17;67907.72;;;-144.28;100.00
68193;BME280;55012;47.562;18.414;2022-09-09T06:07:43;67907.72;;;-144.28;100.00
68193;BME280;55012;47.562;18.414;2022-09-09T06:10:10;67907.72;;;-144.28;100.00
68193;BME280;55012;47.562;18.414;2022-09-09T06:12:35;67907.72;;;-144.28;100.00
68193;BME280;55012;47.562;18.414;2022-09-09T06:15:01;67907.72;;;-144.28;100.00
68193;BME280;55012;47.562;18.414;2022-09-09T06:17:26;67907.72;;;-144.28;100.00
68193;BME280;55012;47.562;18.414;2022-09-09T06:19:51;67907.72;;;-144.28;100.00
68193;BME280;55012;47.562;18.414;2022-09-09T06:22:17;67907.72;;;-144.28;100.00
68193;BME280;55012;47.562;18.414;2022-09-09T06:24:42;67907.72;;;-144.28;100.00
68193;BME280;55012;47.562;18.414;2022-09-09T06:27:09;67907.72;;;-144.28;100.00
68193;BME280;55012;47.562;18.414;2022-09-09T06:29:35;67907.72;;;-144.28;100.00
68193;BME280;55012;47.562;18.414;2022-09-09T06:32:01;67907.72;;;-144.28;100.00
68193;BME280;55012;47.562;18.414;2022-09-09T06:34:27;67907.72;;;-144.28;100.00
68193;BME280;55012;47.562;18.414;2022-09-09T06:36:53;67907.72;;;-144.28;100.00
68193;BME280;55012;47.562;18.414;2022-09-09T06:39:18;67907.72;;;-144.28;100.00
68193;BME280;55012;47.562;18.414;2022-09-09T06:41:44;67907.72;;;-144.28;100.00
68193;BME280;55012;47.562;18.414;2022-09-09T06:44:09;67907.72;;;-144.28;100.00
68193;BME280;55012;47.562;18.414;2022-09-09T06:46:36;67907.72;;;-144.28;100.00
68193;BME280;55012;47.562;18.414;2022-09-09T06:49:03;67907.72;;;-144.28;100.00
68193;BME280;55012;47.562;18.414;2022-09-09T06:51:29;67907.72;;;-144.28;100.00
68193;BME280;55012;47.562;18.414;2022-09-09T06:53:55;67907.72;;;-144.28;100.00
68193;BME280;55012;47.562;18.414;2022-09-09T06:56:25;67907.72;;;-144.28;100.00
68193;BME280;55012;47.562;18.414;2022-09-09T06:58:53;67907.72;;;-144.28;100.00
68193;BME280;55012;47.562;18.414;2022-09-09T07:01:21;67907.72;;;-144.28;100.00
68193;BME280;55012;47.562;18.414;2022-09-09T07:03:47;67907.72;;;-144.28;100.00
68193;BME280;55012;47.562;18.414;2022-09-09T07:06:14;67907.72;;;-144.28;100.00
68193;BME280;55012;47.562;18.414;2022-09-09T07:08:40;67907.72;;;-144.28;100.00
68193;BME280;55012;47.562;18.414;2022-09-09T07:11:06;67907.72;;;-144.28;100.00
68193;BME280;55012;47.562;18.414;2022-09-09T07:13:32;67907.72;;;-144.28;100.00
68193;BME280;55012;47.562;18.414;2022-09-09T07:16:04;67907.72;;;-144.28;100.00
68193;BME280;55012;47.562;18.414;2022-09-09T07:18:30;67907.72;;;-144.28;100.00
68193;BME280;55012;47.562;18.414;2022-09-09T07:20:55;67907.72;;;-144.28;100.00
68193;BME280;55012;47.562;18.414;2022-09-09T07:23:22;67907.72;;;-144.28;100.00
68193;BME280;55012;47.562;18.414;2022-09-09T07:25:47;67907.72;;;-144.28;100.00
68193;BME280;55012;47.562;18.414;2022-09-09T07:28:13;67907.72;;;-144.28;100.00
68193;BME280;55012;47.562;18.414;2022-09-09T07:30:38;67907.72;;;-144.28;100.00
68193;BME280;55012;47.562;18.414;2022-09-09T07:33:04;67907.72;;;-144.28;100.00
68193;BME280;55012;47.562;18.414;2022-09-09T07:35:29;67907.72;;;-144.28;100.00
68193;BME280;55012;47.562;18.414;2022-09-09T07:37:54;67907.72;;;-144.28;100.00
68193;BME280;55012;47.562;18.414;2022-09-09T07:40:20;67907.72;;;-144.28;100.00
68193;BME280;55012;47.562;18.414;2022-09-09T07:42:47;67907.72;;;-144.28;100.00
68193;BME280;55012;47.562;18.414;2022-09-09T07:45:12;67907.72;;;-144.28;100.00
68193;BME280;55012;47.562;18.414;2022-09-09T07:47:37;67907.72;;;-144.28;100.00
68193;BME280;55012;47.562;18.414;2022-09-09T07:50:03;67907.72;;;-144.28;100.00
68193;BME280;55012;47.562;18.414;2022-09-09T07:52:28;67907.72;;;-144.28;100.00
68193;BME280;55012;47.562;18.414;2022-09-09T07:54:53;67907.72;;;-144.28;100.00
68193;BME280;55012;47.562;18.414;2022-09-09T07:57:19;67907.72;;;-144.28;100.00
68193;BME280;55012;47.562;18.414;2022-09-09T07:59:44;67907.72;;;-144.28;100.00
68193;BME280;55012;47.562;18.414;2022-09-09T08:02:11;67907.72;;;-144.28;100.00
68193;BME280;55012;47.562;18.414;2022-09-09T08:04:37;67907.72;;;-144.28;100.00
68193;BME280;55012;47.562;18.414;2022-09-09T08:07:02;67907.72;;;-144.28;100.00
68193;BME280;55012;47.562;18.414;2022-09-09T08:09:28;67907.72;;;-144.28;100.00
68193;BME280;55012;47.562;18.414;2022-09-09T08:11:57;67907.72;;;-144.28;100.00
68193;BME280;55012;47.562;18.414;2022-09-09T08:14:22;67907.72;;;-144.28;100.00
68193;BME280;55012;47.562;18.414;2022-09-09T08:16:48;67907.72;;;-144.28;100.00
68193;BME280;55012;47.562;18.414;2022-09-09T08:19:14;67907.72;;;-144.28;100.00
68193;BME280;55012;47.562;18.414;2022-09-09T08:21:43;67907.72;;;-144.28;100.00
68193;BME280;55012;47.562;18.414;2022-09-09T08:24:09;67907.72;;;-144.28;100.00
68193;BME280;55012;47.562;18.414;2022-09-09T08:26:36;67907.72;;;-144.28;100.00
68193;BME280;55012;47.562;18.414;2022-09-09T08:29:03;67907.72;;;-144.28;100.00
68193;BME280;55012;47.562;18.414;2022-09-09T08:31:29;67907.72;;;-144.28;100.00
68193;BME280;55012;47.562;18.414;2022-09-09T08:33:56;67907.72;;;-144.28;100.00
68193;BME280;55012;47.562;18.414;2022-09-09T08:36:24;67907.72;;;-144.28;100.00
68193;BME280;55012;47.562;18.414;2022-09-09T08:38:51;67907.72;;;-144.28;100.00
68193;BME280;55012;47.562;18.414;2022-09-09T08:43:58;67907.72;;;-144.28;100.00
68193;BME280;55012;47.562;18.414;2022-09-09T08:46:38;67907.72;;;-144.28;100.00
68193;BME280;55012;47.562;18.414;2022-09-09T08:51:36;67907.72;;;-144.28;100.00
68193;BME280;55012;47.562;18.414;2022-09-09T08:54:02;67907.72;;;-144.28;100.00
68193;BME280;55012;47.562;18.414;2022-09-09T08:56:28;67907.72;;;-144.28;100.00
68193;BME280;55012;47.562;18.414;2022-09-09T08:58:56;67907.72;;;-144.28;100.00
68193;BME280;55012;47.562;18.414;2022-09-09T09:03:54;67907.72;;;-144.28;100.00
68193;BME280;55012;47.562;18.414;2022-09-09T09:09:11;67907.72;;;-144.28;100.00
68193;BME280;55012;47.562;18.414;2022-09-09T09:11:44;67907.72;;;-144.28;100.00
68193;BME280;55012;47.562;18.414;2022-09-09T09:16:45;67907.72;;;-144.28;100.00
68193;BME280;55012;47.562;18.414;2022-09-09T09:19:16;67907.72;;;-144.28;100.00
68193;BME280;55012;47.562;18.414;2022-09-09T09:27:16;67907.72;;;-144.28;100.00
68193;BME280;55012;47.562;18.414;2022-09-09T09:29:45;67907.72;;;-144.28;100.00
68193;BME280;55012;47.562;18.414;2022-09-09T09:32:14;67907.72;;;-144.28;100.00
68193;BME280;55012;47.562;18.414;2022-09-09T09:34:41;67907.72;;;-144.28;100.00
68193;BME280;55012;47.562;18.414;2022-09-09T09:37:12;67907.72;;;-144.28;100.00
68193;BME280;55012;47.562;18.414;2022-09-09T09:39:42;67907.72;;;-144.28;100.00
68193;BME280;55012;47.562;18.414;2022-09-09T09:42:09;67907.72;;;-144.28;100.00
68193;BME280;55012;47.562;18.414;2022-09-09T09:44:35;67907.72;;;-144.28;100.00
68193;BME280;55012;47.562;18.414;2022-09-09T09:47:06;67907.72;;;-144.28;100.00
68193;BME280;55012;47.562;18.414;2022-09-09T09:49:32;67907.72;;;-144.28;100.00
68193;BME280;55012;47.562;18.414;2022-09-09T09:52:04;67907.72;;;-144.28;100.00
68193;BME280;55012;47.562;18.414;2022-09-09T09:54:34;67907.72;;;-144.28;100.00
68193;BME280;55012;47.562;18.414;2022-09-09T09:57:11;67907.72;;;-144.28;100.00
68193;BME280;55012;47.562;18.414;2022-09-09T09:59:37;67907.72;;;-144.28;100.00
68193;BME280;55012;47.562;18.414;2022-09-09T10:02:23;67907.72;;;-144.28;100.00
68193;BME280;55012;47.562;18.414;2022-09-09T10:05:00;67907.72;;;-144.28;100.00
68193;BME280;55012;47.562;18.414;2022-09-09T10:07:26;67907.72;;;-144.28;100.00
68193;BME280;55012;47.562;18.414;2022-09-09T10:09:53;67907.72;;;-144.28;100.00
68193;BME280;55012;47.562;18.414;2022-09-09T10:14:48;67907.72;;;-144.28;100.00
68193;BME280;55012;47.562;18.414;2022-09-09T10:17:27;67907.72;;;-144.28;100.00
68193;BME280;55012;47.562;18.414;2022-09-09T10:22:26;67907.72;;;-144.28;100.00
68193;BME280;55012;47.562;18.414;2022-09-09T10:25:02;67907.72;;;-144.28;100.00
68193;BME280;55012;47.562;18.414;2022-09-09T10:30:19;67907.72;;;-144.28;100.00
68193;BME280;55012;47.562;18.414;2022-09-09T10:51:22;67907.72;;;-144.28;100.00
68193;BME280;55012;47.562;18.414;2022-09-09T10:56:17;67907.72;;;-144.28;100.00
68193;BME280;55012;47.562;18.414;2022-09-09T10:58:46;67907.72;;;-144.28;100.00
68193;BME280;55012;47.562;18.414;2022-09-09T11:01:23;67907.72;;;-144.28;100.00
68193;BME280;55012;47.562;18.414;2022-09-09T11:03:52;67907.72;;;-144.28;100.00
68193;BME280;55012;47.562;18.414;2022-09-09T11:06:21;67907.72;;;-144.28;100.00
68193;BME280;55012;47.562;18.414;2022-09-09T11:08:49;67907.72;;;-144.28;100.00
68193;BME280;55012;47.562;18.414;2022-09-09T11:18:36;67907.72;;;-144.28;100.00
68193;BME280;55012;47.562;18.414;2022-09-09T11:21:03;67907.72;;;-144.28;100.00
68193;BME280;55012;47.562;18.414;2022-09-09T11:23:42;67907.72;;;-144.28;100.00
68193;BME280;55012;47.562;18.414;2022-09-09T11:26:15;67907.72;;;-144.28;100.00
68193;BME280;55012;47.562;18.414;2022-09-09T11:31:38;67907.72;;;-144.28;100.00
68193;BME280;55012;47.562;18.414;2022-09-09T11:41:37;67907.72;;;-144.28;100.00
68193;BME280;55012;47.562;18.414;2022-09-09T11:44:10;67907.72;;;-144.28;100.00
68193;BME280;55012;47.562;18.414;2022-09-09T11:46:37;67907.72;;;-144.28;100.00
68193;BME280;55012;47.562;18.414;2022-09-09T11:49:04;67907.72;;;-144.28;100.00
68193;BME280;55012;47.562;18.414;2022-09-09T11:51:31;67907.72;;;-144.28;100.00
68193;BME280;55012;47.562;18.414;2022-09-09T11:53:58;67907.72;;;-144.28;100.00
68193;BME280;55012;47.562;18.414;2022-09-09T12:01:36;67907.72;;;-144.28;100.00
68193;BME280;55012;47.562;18.414;2022-09-09T12:06:47;67907.72;;;-144.28;100.00
68193;BME280;55012;47.562;18.414;2022-09-09T12:11:50;67907.72;;;-144.28;100.00
68193;BME280;55012;47.562;18.414;2022-09-09T12:14:22;67907.72;;;-144.28;100.00
68193;BME280;55012;47.562;18.414;2022-09-09T12:17:08;67907.72;;;-144.28;100.00
68193;BME280;55012;47.562;18.414;2022-09-09T12:19:34;67907.72;;;-144.28;100.00
68193;BME280;55012;47.562;18.414;2022-09-09T12:24:40;67907.72;;;-144.28;100.00
68193;BME280;55012;47.562;18.414;2022-09-09T12:32:04;67907.72;;;-144.28;100.00
68193;BME280;55012;47.562;18.414;2022-09-09T12:34:41;67907.72;;;-144.28;100.00
68193;BME280;55012;47.562;18.414;2022-09-09T12:37:13;67907.72;;;-144.28;100.00
68193;BME280;55012;47.562;18.414;2022-09-09T12:39:42;67907.72;;;-144.28;100.00
68193;BME280;55012;47.562;18.414;2022-09-09T12:42:20;67907.72;;;-144.28;100.00
68193;BME280;55012;47.562;18.414;2022-09-09T12:47:18;67907.72;;;-144.28;100.00
68193;BME280;55012;47.562;18.414;2022-09-09T12:49:44;67907.72;;;-144.28;100.00
68193;BME280;55012;47.562;18.414;2022-09-09T12:52:14;67907.72;;;-144.28;100.00
68193;BME280;55012;47.562;18.414;2022-09-09T12:54:44;67907.72;;;-144.28;100.00
68193;BME280;55012;47.562;18.414;2022-09-09T12:57:12;67907.72;;;-144.28;100.00
68193;BME280;55012;47.562;18.414;2022-09-09T12:59:39;67907.72;;;-144.28;100.00
68193;BME280;55012;47.562;18.414;2022-09-09T13:02:16;67907.72;;;-144.28;100.00
68193;BME280;55012;47.562;18.414;2022-09-09T13:04:42;67907.72;;;-144.28;100.00
68193;BME280;55012;47.562;18.414;2022-09-09T13:07:09;67907.72;;;-144.28;100.00
68193;BME280;55012;47.562;18.414;2022-09-09T13:09:35;67907.72;;;-144.28;100.00
68193;BME280;55012;47.562;18.414;2022-09-09T13:12:00;67907.72;;;-144.28;100.00
68193;BME280;55012;47.562;18.414;2022-09-09T13:15:26;98616.34;;;24.89;100.00
68193;BME280;55012;47.562;18.414;2022-09-09T13:17:56;98656.78;;;24.96;100.00
68193;BME280;55012;47.562;18.414;2022-09-09T13:20:23;98681.34;;;24.84;100.00
68193;BME280;55012;47.562;18.414;2022-09-09T13:22:51;98675.78;;;24.75;100.00
68193;BME280;55012;47.562;18.414;2022-09-09T13:28:03;98655.66;;;24.75;100.00
68193;BME280;55012;47.562;18.414;2022-09-09T13:30:34;98672.28;;;24.84;100.00
68193;BME280;55012;47.562;18.414;2022-09-09T13:35:35;98708.97;;;24.75;100.00
68193;BME280;55012;47.562;18.414;2022-09-09T13:38:14;98716.94;;;24.73;100.00
68193;BME280;55012;47.562;18.414;2022-09-09T13:40:40;98676.19;;;24.64;100.00
68193;BME280;55012;47.562;18.414;2022-09-09T13:43:22;98656.81;;;24.64;100.00
68193;BME280;55012;47.562;18.414;2022-09-09T13:45:57;98691.44;;;24.69;100.00
68193;BME280;55012;47.562;18.414;2022-09-09T13:48:24;98683.75;;;24.73;100.00
68193;BME280;55012;47.562;18.414;2022-09-09T13:51:00;98728.56;;;24.90;100.00
68193;BME280;55012;47.562;18.414;2022-09-09T13:53:26;98768.34;;;25.14;100.00
68193;BME280;55012;47.562;18.414;2022-09-09T13:55:53;98832.88;;;25.24;100.00
68193;BME280;55012;47.562;18.414;2022-09-09T13:58:19;98835.41;;;25.09;100.00
68193;BME280;55012;47.562;18.414;2022-09-09T14:00:45;98802.81;;;25.13;100.00
68193;BME280;55012;47.562;18.414;2022-09-09T14:03:11;98755.88;;;25.41;100.00
68193;BME280;55012;47.562;18.414;2022-09-09T14:05:37;98791.31;;;25.64;100.00
68193;BME280;55012;47.562;18.414;2022-09-09T14:08:06;98816.38;;;26.19;100.00
68193;BME280;55012;47.562;18.414;2022-09-09T14:10:33;98884.22;;;26.55;100.00
68193;BME280;55012;47.562;18.414;2022-09-09T14:13:02;98904.88;;;27.00;100.00
68193;BME280;55012;47.562;18.414;2022-09-09T14:15:28;98917.84;;;27.12;100.00
68193;BME280;55012;47.562;18.414;2022-09-09T14:17:54;98853.97;;;26.94;100.00
68193;BME280;55012;47.562;18.414;2022-09-09T14:20:21;98867.28;;;26.62;100.00
68193;BME280;55012;47.562;18.414;2022-09-09T14:22:47;98874.94;;;27.13;100.00
68193;BME280;55012;47.562;18.414;2022-09-09T14:25:13;98872.13;;;27.40;100.00
68193;BME280;55012;47.562;18.414;2022-09-09T14:27:39;98874.72;;;27.44;100.00
68193;BME280;55012;47.562;18.414;2022-09-09T14:30:05;98851.50;;;27.23;100.00
68193;BME280;55012;47.562;18.414;2022-09-09T14:32:31;98828.25;;;27.44;100.00
68193;BME280;55012;47.562;18.414;2022-09-09T14:34:57;98827.16;;;27.51;100.00
68193;BME280;55012;47.562;18.414;2022-09-09T14:37:23;98837.47;;;27.60;100.00
68193;BME280;55012;47.562;18.414;2022-09-09T14:39:49;98865.56;;;28.19;100.00
68193;BME280;55012;47.562;18.414;2022-09-09T14:42:16;98845.09;;;27.83;100.00